createdAt,value
2018-01-07T00:00:45.716Z,2.70
2018-01-07T00:03:14.798Z,2.70
2018-01-07T00:05:42.472Z,2.70
2018-01-07T00:08:09.999Z,2.70
2018-01-07T00:13:21.971Z,2.60
2018-01-07T00:15:49.496Z,2.60
2018-01-07T00:18:17.789Z,2.50
2018-01-07T00:20:46.226Z,2.40
2018-01-07T00:23:13.749Z,2.50
2018-01-07T00:25:42.034Z,2.40
2018-01-07T00:28:11.200Z,2.40
2018-01-07T00:30:38.726Z,2.30
2018-01-07T00:33:07.019Z,2.30
2018-01-07T00:35:34.591Z,2.30
2018-01-07T00:38:02.114Z,2.30
2018-01-07T00:40:29.630Z,2.30
2018-01-07T00:42:57.383Z,2.30
2018-01-07T00:45:24.914Z,2.30
2018-01-07T00:47:52.441Z,2.30
2018-01-07T00:50:20.799Z,2.20
2018-01-07T00:52:49.091Z,2.20
2018-01-07T00:55:16.620Z,2.20
2018-01-07T00:57:44.386Z,2.20
2018-01-07T01:00:11.911Z,2.10
2018-01-07T01:02:39.443Z,2.10
2018-01-07T01:05:07.095Z,2.10
2018-01-07T01:07:34.615Z,2.10
2018-01-07T01:10:02.143Z,2.10
2018-01-07T01:12:29.835Z,2.10
2018-01-07T01:14:57.361Z,2.00
2018-01-07T01:17:25.653Z,2.00
2018-01-07T01:19:54.088Z,2.00
2018-01-07T01:22:21.634Z,2.00
2018-01-07T01:24:49.174Z,1.90
2018-01-07T01:27:17.511Z,1.90
2018-01-07T01:29:45.044Z,1.80
2018-01-07T01:32:13.348Z,1.80
2018-01-07T01:34:41.050Z,1.80
2018-01-07T01:37:08.578Z,1.80
2018-01-07T01:39:36.885Z,1.70
2018-01-07T01:42:04.675Z,1.70
2018-01-07T01:44:32.201Z,1.70
2018-01-07T01:47:00.523Z,1.70
2018-01-07T01:49:28.202Z,1.70
2018-01-07T01:51:56.531Z,1.70
2018-01-07T01:54:24.056Z,1.70
2018-01-07T01:56:51.626Z,1.60
2018-01-07T01:59:19.154Z,1.60
2018-01-07T02:01:46.679Z,1.60
2018-01-07T02:04:14.244Z,1.60
2018-01-07T02:06:41.779Z,1.50
2018-01-07T02:09:10.071Z,1.40
2018-01-07T02:11:38.608Z,1.40
2018-01-07T02:14:06.151Z,1.40
2018-01-07T02:16:33.674Z,1.40
2018-01-07T02:19:01.246Z,1.30
2018-01-07T02:21:28.768Z,1.30
2018-01-07T02:23:56.295Z,1.30
2018-01-07T02:26:23.958Z,1.30
2018-01-07T02:28:51.484Z,1.20
2018-01-07T02:31:19.005Z,1.20
2018-01-07T02:33:46.566Z,1.20
2018-01-07T02:36:14.254Z,1.20
2018-01-07T02:38:41.877Z,1.20
2018-01-07T02:41:09.649Z,1.20
2018-01-07T02:43:37.178Z,1.20
2018-01-07T02:46:04.723Z,1.20
2018-01-07T02:48:32.284Z,1.20
2018-01-07T02:50:59.836Z,1.10
2018-01-07T02:53:27.370Z,1.10
2018-01-07T02:55:55.036Z,1.10
2018-01-07T02:58:22.568Z,1.00
2018-01-07T03:00:50.240Z,1.00
2018-01-07T03:03:17.802Z,1.00
2018-01-07T03:05:45.327Z,0.90
2018-01-07T03:08:12.881Z,0.90
2018-01-07T03:10:40.451Z,0.90
2018-01-07T03:13:08.007Z,0.90
2018-01-07T03:15:35.534Z,0.80
2018-01-07T03:18:03.236Z,0.90
2018-01-07T03:20:30.765Z,0.80
2018-01-07T03:22:59.067Z,0.70
2018-01-07T03:25:26.668Z,0.70
2018-01-07T03:27:54.191Z,0.70
2018-01-07T03:30:22.492Z,0.70
2018-01-07T03:32:50.832Z,0.70
2018-01-07T03:35:18.359Z,0.70
2018-01-07T03:37:45.887Z,0.60
2018-01-07T03:40:13.535Z,0.60
2018-01-07T03:42:41.090Z,0.60
2018-01-07T03:45:08.614Z,0.60
2018-01-07T03:47:36.182Z,0.60
2018-01-07T03:50:03.715Z,0.60
2018-01-07T03:52:31.265Z,0.60
2018-01-07T03:54:58.847Z,0.50
2018-01-07T03:57:26.378Z,0.50
2018-01-07T03:59:54.728Z,0.50
2018-01-07T04:02:22.302Z,0.50
2018-01-07T04:04:49.823Z,0.50
2018-01-07T04:07:18.114Z,0.50
2018-01-07T04:09:46.438Z,0.50
2018-01-07T04:12:13.966Z,0.50
2018-01-07T04:14:42.267Z,0.40
2018-01-07T04:17:09.951Z,0.40
2018-01-07T04:19:37.472Z,0.40
2018-01-07T04:22:05.008Z,0.40
2018-01-07T04:24:32.593Z,0.40
2018-01-07T04:27:00.130Z,0.40
2018-01-07T04:29:27.670Z,0.30
2018-01-07T04:31:55.343Z,0.30
2018-01-07T04:34:22.893Z,0.30
2018-01-07T04:39:23.259Z,0.30
2018-01-07T04:41:50.847Z,0.30
2018-01-07T04:44:18.374Z,0.30
2018-01-07T04:46:46.151Z,0.30
2018-01-07T04:49:13.683Z,0.30
2018-01-07T04:51:41.976Z,0.30
2018-01-07T04:54:10.500Z,0.30
2018-01-07T04:56:38.023Z,0.20
2018-01-07T04:59:05.543Z,0.30
2018-01-07T05:01:33.120Z,0.30
2018-01-07T05:04:00.647Z,0.30
2018-01-07T05:06:28.939Z,0.30
2018-01-07T05:08:57.286Z,0.30
2018-01-07T05:11:24.922Z,0.30
2018-01-07T05:13:52.463Z,0.40
2018-01-07T05:16:20.991Z,0.30
2018-01-07T05:18:48.515Z,0.30
2018-01-07T05:21:16.041Z,0.30
2018-01-07T05:23:44.935Z,0.30
2018-01-07T05:26:13.315Z,0.20
2018-01-07T05:28:40.962Z,0.20
2018-01-07T05:31:09.295Z,0.20
2018-01-07T05:33:36.818Z,0.20
2018-01-07T05:36:05.107Z,0.20
2018-01-07T05:38:32.671Z,0.20
2018-01-07T05:41:00.213Z,0.20
2018-01-07T05:43:27.787Z,0.20
2018-01-07T05:45:55.369Z,0.10
2018-01-07T05:48:22.903Z,0.10
2018-01-07T05:50:50.436Z,0.10
2018-01-07T05:53:18.773Z,0.10
2018-01-07T05:55:47.267Z,0.10
2018-01-07T05:58:14.802Z,0.10
2018-01-07T06:00:43.146Z,0.10
2018-01-07T06:03:10.675Z,0.00
2018-01-07T06:05:38.210Z,0.00
2018-01-07T06:08:05.780Z,0.10
2018-01-07T06:10:34.067Z,0.10
2018-01-07T06:13:01.597Z,0.10
2018-01-07T06:15:29.175Z,0.10
2018-01-07T06:17:56.704Z,0.10
2018-01-07T06:20:25.008Z,0.00
2018-01-07T06:22:52.682Z,0.00
2018-01-07T06:25:20.215Z,0.00
2018-01-07T06:27:47.744Z,-0.10
2018-01-07T06:30:15.524Z,-0.10
2018-01-07T06:32:43.060Z,-0.10
2018-01-07T06:35:10.591Z,0.00
2018-01-07T06:37:38.418Z,0.00
2018-01-07T06:40:05.947Z,-0.10
2018-01-07T06:42:33.484Z,-0.10
2018-01-07T06:45:01.252Z,0.00
2018-01-07T06:47:28.782Z,-0.10
2018-01-07T06:49:57.078Z,0.00
2018-01-07T06:52:24.643Z,0.00
2018-01-07T06:54:52.948Z,0.00
2018-01-07T06:57:20.530Z,0.00
2018-01-07T06:59:48.199Z,0.00
2018-01-07T07:02:15.732Z,0.00
2018-01-07T07:04:43.258Z,0.00
2018-01-07T07:07:10.932Z,0.00
2018-01-07T07:09:38.450Z,0.00
2018-01-07T07:12:06.755Z,0.10
2018-01-07T07:14:34.459Z,0.00
2018-01-07T07:17:02.012Z,0.00
2018-01-07T07:19:29.535Z,0.00
2018-01-07T07:21:57.102Z,0.10
2018-01-07T07:24:24.623Z,0.10
2018-01-07T07:26:52.155Z,0.10
2018-01-07T07:29:19.919Z,0.10
2018-01-07T07:31:47.442Z,0.00
2018-01-07T07:34:15.016Z,0.10
2018-01-07T07:36:42.600Z,0.00
2018-01-07T07:39:10.126Z,0.00
2018-01-07T07:41:38.415Z,0.10
2018-01-07T07:44:06.758Z,0.10
2018-01-07T07:46:34.716Z,0.10
2018-01-07T07:49:02.285Z,0.10
2018-01-07T07:51:29.872Z,0.10
2018-01-07T07:53:57.400Z,0.20
2018-01-07T07:56:24.950Z,0.20
2018-01-07T07:58:52.529Z,0.20
2018-01-07T08:01:20.051Z,0.20
2018-01-07T08:03:47.574Z,0.10
2018-01-07T08:06:15.159Z,0.20
2018-01-07T08:08:43.448Z,0.20
2018-01-07T08:11:11.738Z,0.20
2018-01-07T08:13:40.062Z,0.30
2018-01-07T08:16:07.582Z,0.20
2018-01-07T08:18:35.147Z,0.30
2018-01-07T08:21:02.884Z,0.30
2018-01-07T08:23:30.456Z,0.20
2018-01-07T08:25:58.028Z,0.20
2018-01-07T08:28:25.619Z,0.20
2018-01-07T08:30:53.251Z,0.20
2018-01-07T08:33:20.788Z,0.20
2018-01-07T08:35:49.214Z,0.10
2018-01-07T08:38:16.747Z,0.10
2018-01-07T08:40:45.050Z,0.10
2018-01-07T08:43:13.578Z,0.10
2018-01-07T08:45:41.105Z,0.10
2018-01-07T08:48:08.630Z,0.10
2018-01-07T08:50:36.207Z,0.10
2018-01-07T08:53:03.739Z,0.10
2018-01-07T08:55:31.290Z,0.20
2018-01-07T08:57:59.834Z,0.40
2018-01-07T09:00:27.370Z,0.30
2018-01-07T09:02:54.921Z,0.40
2018-01-07T09:05:23.276Z,0.30
2018-01-07T09:07:50.807Z,0.30
2018-01-07T09:10:19.041Z,0.30
2018-01-07T09:12:46.676Z,0.30
2018-01-07T09:15:14.240Z,0.30
2018-01-07T09:17:41.802Z,0.40
2018-01-07T09:20:09.427Z,0.30
2018-01-07T09:22:37.400Z,0.40
2018-01-07T09:25:04.951Z,0.50
2018-01-07T09:27:32.519Z,0.50
2018-01-07T09:30:00.060Z,0.70
2018-01-07T09:32:28.445Z,1.00
2018-01-07T09:34:56.087Z,0.90
2018-01-07T09:37:23.620Z,1.00
2018-01-07T09:39:51.243Z,1.00
2018-01-07T09:42:18.819Z,1.00
2018-01-07T09:44:47.865Z,1.00
2018-01-07T09:47:15.404Z,1.00
2018-01-07T09:49:42.979Z,1.00
2018-01-07T09:52:11.284Z,0.90
2018-01-07T09:54:39.575Z,0.90
2018-01-07T09:57:07.912Z,0.90
2018-01-07T09:59:36.188Z,0.90
2018-01-07T10:02:03.722Z,1.00
2018-01-07T10:04:31.305Z,1.20
2018-01-07T10:06:58.841Z,1.50
2018-01-07T10:09:26.377Z,1.80
2018-01-07T10:11:54.070Z,2.00
2018-01-07T10:14:21.615Z,1.90
2018-01-07T10:16:49.144Z,2.00
2018-01-07T10:19:17.685Z,2.40
2018-01-07T10:21:45.218Z,2.30
2018-01-07T10:24:12.747Z,2.50
2018-01-07T10:26:41.091Z,2.40
2018-01-07T10:29:08.635Z,2.40
2018-01-07T10:31:36.984Z,2.50
2018-01-07T10:34:04.628Z,2.40
2018-01-07T10:36:32.159Z,2.50
2018-01-07T10:39:00.450Z,2.30
2018-01-07T10:41:28.796Z,2.50
2018-01-07T10:43:56.324Z,2.50
2018-01-07T10:46:24.625Z,2.70
2018-01-07T10:48:52.215Z,2.60
2018-01-07T10:51:19.749Z,2.60
2018-01-07T10:53:48.047Z,2.60
2018-01-07T10:56:15.834Z,2.60
2018-01-07T10:58:43.366Z,2.60
2018-01-07T11:04:12.755Z,2.30
2018-01-07T11:06:40.355Z,2.30
2018-01-07T11:09:07.889Z,2.30
2018-01-07T11:11:35.419Z,2.40
2018-01-07T11:14:03.017Z,2.30
2018-01-07T11:16:31.315Z,2.20
2018-01-07T11:18:58.911Z,2.20
2018-01-07T11:21:26.706Z,2.20
2018-01-07T11:23:54.288Z,2.20
2018-01-07T11:26:21.794Z,2.20
2018-01-07T11:28:50.170Z,2.40
2018-01-07T11:31:17.699Z,2.40
2018-01-07T11:33:45.244Z,2.50
2018-01-07T11:36:13.845Z,2.60
2018-01-07T11:38:41.384Z,2.60
2018-01-07T11:41:08.943Z,2.60
2018-01-07T11:43:36.556Z,2.60
2018-01-07T11:46:04.096Z,2.60
2018-01-07T11:48:32.394Z,2.50
2018-01-07T11:51:00.923Z,2.50
2018-01-07T11:53:28.452Z,2.50
2018-01-07T11:55:56.754Z,2.50
2018-01-07T11:58:24.530Z,2.50
2018-01-07T12:00:52.939Z,2.60
2018-01-07T12:03:20.467Z,2.60
2018-01-07T12:05:48.060Z,2.60
2018-01-07T12:08:16.353Z,2.70
2018-01-07T12:10:43.882Z,2.60
2018-01-07T12:13:11.641Z,2.80
2018-01-07T12:15:39.167Z,2.80
2018-01-07T12:18:07.503Z,2.70
2018-01-07T12:20:35.149Z,2.70
2018-01-07T12:23:03.459Z,2.80
2018-01-07T12:25:31.005Z,2.80
2018-01-07T12:27:58.595Z,2.90
2018-01-07T12:30:26.123Z,3.00
2018-01-07T12:32:54.422Z,3.00
2018-01-07T12:35:22.094Z,3.00
2018-01-07T12:37:50.395Z,3.00
2018-01-07T12:40:17.970Z,3.00
2018-01-07T12:42:45.538Z,3.00
2018-01-07T12:45:13.064Z,3.10
2018-01-07T12:47:40.588Z,3.10
2018-01-07T12:50:08.163Z,3.00
2018-01-07T12:52:35.689Z,2.90
2018-01-07T12:55:03.215Z,2.90
2018-01-07T12:57:30.889Z,2.90
2018-01-07T12:59:58.415Z,2.90
2018-01-07T13:02:26.712Z,2.90
2018-01-07T13:04:55.242Z,2.90
2018-01-07T13:07:22.770Z,2.90
2018-01-07T13:09:51.064Z,2.90
2018-01-07T13:12:19.409Z,2.90
2018-01-07T13:14:46.943Z,2.80
2018-01-07T13:17:14.499Z,2.90
2018-01-07T13:19:42.116Z,2.90
2018-01-07T13:22:09.643Z,2.90
2018-01-07T13:24:37.477Z,2.90
2018-01-07T13:27:05.210Z,2.90
2018-01-07T13:29:32.733Z,3.00
2018-01-07T13:32:00.277Z,3.00
2018-01-07T13:34:29.675Z,2.90
2018-01-07T13:36:57.221Z,2.90
2018-01-07T13:39:24.770Z,3.00
2018-01-07T13:41:53.135Z,2.90
2018-01-07T13:44:20.667Z,2.90
2018-01-07T13:46:48.195Z,2.90
2018-01-07T13:49:15.800Z,2.90
2018-01-07T13:51:43.334Z,2.90
2018-01-07T13:54:11.619Z,2.90
2018-01-07T13:56:39.182Z,2.90
2018-01-07T13:59:07.475Z,2.90
2018-01-07T14:01:35.019Z,2.90
2018-01-07T14:04:02.794Z,3.00
2018-01-07T14:06:30.331Z,2.90
2018-01-07T14:08:57.874Z,2.90
2018-01-07T14:11:25.458Z,2.90
2018-01-07T14:13:53.748Z,2.90
2018-01-07T14:16:22.043Z,2.90
2018-01-07T14:18:50.389Z,2.90
2018-01-07T14:21:18.024Z,2.80
2018-01-07T14:23:45.564Z,2.80
2018-01-07T14:26:13.984Z,2.70
2018-01-07T14:28:41.558Z,2.70
2018-01-07T14:31:09.094Z,2.70
2018-01-07T14:33:36.877Z,2.70
2018-01-07T14:36:05.168Z,2.70
2018-01-07T14:38:33.458Z,2.60
2018-01-07T14:41:01.908Z,2.60
2018-01-07T14:43:29.470Z,2.60
2018-01-07T14:45:57.000Z,2.50
2018-01-07T14:48:24.607Z,2.50
2018-01-07T14:50:52.162Z,2.50
2018-01-07T14:53:19.723Z,2.50
2018-01-07T14:55:47.419Z,2.40
2018-01-07T14:58:14.946Z,2.40
2018-01-07T15:00:43.255Z,2.40
2018-01-07T15:03:10.823Z,2.30
2018-01-07T15:05:38.354Z,2.40
2018-01-07T15:08:05.903Z,2.30
2018-01-07T15:10:33.659Z,2.30
2018-01-07T15:13:01.227Z,2.20
2018-01-07T15:15:28.760Z,2.10
2018-01-07T15:17:57.147Z,1.90
2018-01-07T15:20:24.688Z,1.90
2018-01-07T15:22:52.249Z,2.00
2018-01-07T15:25:19.855Z,1.90
2018-01-07T15:27:48.160Z,1.90
2018-01-07T15:30:16.467Z,1.80
2018-01-07T15:32:44.053Z,1.80
2018-01-07T15:35:11.584Z,1.80
2018-01-07T15:37:39.886Z,1.70
2018-01-07T15:40:08.436Z,1.70
2018-01-07T15:42:35.967Z,1.70
2018-01-07T15:45:03.526Z,1.60
2018-01-07T15:47:31.114Z,1.60
2018-01-07T15:49:58.681Z,1.60
2018-01-07T15:52:26.853Z,1.60
2018-01-07T15:54:55.220Z,1.50
2018-01-07T15:57:22.756Z,1.50
2018-01-07T15:59:50.280Z,1.40
2018-01-07T16:02:18.619Z,1.40
2018-01-07T16:04:46.431Z,1.40
2018-01-07T16:07:13.960Z,1.30
2018-01-07T16:09:41.568Z,1.30
2018-01-07T16:12:09.567Z,1.20
2018-01-07T16:14:37.114Z,1.20
2018-01-07T16:17:06.044Z,1.20
2018-01-07T16:19:34.364Z,1.20
2018-01-07T16:22:01.892Z,1.20
2018-01-07T16:24:30.344Z,1.10
2018-01-07T16:26:57.875Z,1.10
2018-01-07T16:29:25.414Z,1.10
2018-01-07T16:31:53.149Z,1.10
2018-01-07T16:34:20.676Z,1.00
2018-01-07T16:36:48.980Z,1.00
2018-01-07T16:39:16.556Z,1.00
2018-01-07T16:41:44.083Z,1.00
2018-01-07T16:44:11.611Z,1.00
2018-01-07T16:46:39.300Z,1.00
2018-01-07T16:49:06.847Z,1.00
2018-01-07T16:51:34.384Z,0.90
2018-01-07T16:54:02.152Z,0.80
2018-01-07T16:56:29.824Z,0.90
2018-01-07T16:58:58.282Z,0.90
2018-01-07T17:01:26.699Z,0.90
2018-01-07T17:03:54.238Z,0.90
2018-01-07T17:06:21.814Z,1.00
2018-01-07T17:08:49.455Z,1.00
2018-01-07T17:11:16.998Z,0.90
2018-01-07T17:13:45.330Z,1.20
2018-01-07T17:16:12.923Z,1.10
2018-01-07T17:18:40.456Z,1.20
2018-01-07T17:21:08.781Z,1.30
2018-01-07T17:23:36.378Z,1.30
2018-01-07T17:26:03.905Z,1.20
2018-01-07T17:28:31.459Z,1.00
2018-01-07T17:30:59.035Z,0.90
2018-01-07T17:33:26.572Z,0.70
2018-01-07T17:35:54.103Z,0.70
2018-01-07T17:38:21.714Z,0.60
2018-01-07T17:40:49.367Z,0.60
2018-01-07T17:43:16.962Z,0.60
2018-01-07T17:45:44.540Z,0.50
2018-01-07T17:48:12.855Z,0.50
2018-01-07T17:50:40.639Z,0.40
2018-01-07T17:53:08.222Z,0.40
2018-01-07T17:55:35.768Z,0.50
2018-01-07T17:58:04.079Z,0.50
2018-01-07T18:00:31.663Z,0.50
2018-01-07T18:02:59.195Z,0.50
2018-01-07T18:05:26.767Z,0.60
2018-01-07T18:07:55.136Z,0.40
2018-01-07T18:10:22.660Z,0.40
2018-01-07T18:12:50.459Z,0.40
2018-01-07T18:15:18.215Z,0.40
2018-01-07T18:17:45.868Z,0.40
2018-01-07T18:20:13.398Z,0.40
2018-01-07T18:22:40.971Z,0.30
2018-01-07T18:25:08.507Z,0.30
2018-01-07T18:27:36.046Z,0.30
2018-01-07T18:30:03.629Z,0.30
2018-01-07T18:32:31.167Z,0.20
2018-01-07T18:34:59.582Z,0.10
2018-01-07T18:37:27.209Z,0.10
2018-01-07T18:39:54.828Z,0.00
2018-01-07T18:42:22.360Z,0.00
2018-01-07T18:44:49.983Z,0.00
2018-01-07T18:47:17.511Z,0.00
2018-01-07T18:49:45.041Z,-0.10
2018-01-07T18:52:13.015Z,-0.10
2018-01-07T19:38:22.389Z,-0.10
2018-01-07T19:40:49.942Z,-0.60
2018-01-07T19:43:17.498Z,-0.60
2018-01-07T19:45:45.084Z,-0.50
2018-01-07T19:48:13.123Z,-0.50
2018-01-07T19:50:40.654Z,-0.50
2018-01-07T19:53:08.417Z,-0.50
2018-01-07T19:55:37.466Z,-0.60
2018-01-07T19:58:05.871Z,-0.60
2018-01-07T20:00:34.876Z,-0.60
2018-01-07T20:03:03.197Z,-0.60
2018-01-07T20:05:30.793Z,-0.60
2018-01-07T20:07:59.345Z,-0.60
2018-01-07T20:10:26.897Z,-0.60
2018-01-07T20:12:54.462Z,-0.60
2018-01-07T20:15:24.886Z,-0.60
2018-01-07T20:17:52.494Z,-0.60
2018-01-07T20:20:20.002Z,-0.60
2018-01-07T20:22:47.710Z,-0.70
2018-01-07T20:25:15.583Z,-0.70
2018-01-07T20:27:44.131Z,-0.70
2018-01-07T20:30:12.908Z,-0.70
2018-01-07T20:32:41.360Z,-0.70
2018-01-07T20:35:09.796Z,-0.80
2018-01-07T20:37:37.667Z,-0.70
2018-01-07T20:40:05.195Z,-0.70
2018-01-07T20:42:34.419Z,-0.80
2018-01-07T20:45:02.113Z,-0.80
2018-01-07T20:47:30.524Z,-0.80
2018-01-07T20:49:58.316Z,-0.80
2018-01-07T20:52:25.890Z,-0.80
2018-01-07T20:54:53.547Z,-0.80
2018-01-07T20:57:21.083Z,-0.80
2018-01-07T20:59:49.454Z,-0.80
2018-01-07T21:02:16.991Z,-0.80
2018-01-07T21:04:44.635Z,-0.80
2018-01-07T21:07:12.235Z,-0.80
2018-01-07T21:09:39.802Z,-0.80
2018-01-07T21:12:07.332Z,-0.80
2018-01-07T21:14:34.958Z,-0.80
2018-01-07T21:17:02.519Z,-0.90
2018-01-07T21:19:30.051Z,-0.80
2018-01-07T21:21:58.588Z,-0.90
2018-01-07T21:24:26.115Z,-0.90
2018-01-07T21:26:54.428Z,-0.90
2018-01-07T21:29:22.020Z,-0.90
2018-01-07T21:31:49.555Z,-0.90
2018-01-07T21:34:17.108Z,-0.90
2018-01-07T21:36:44.682Z,-0.90
2018-01-07T21:39:13.362Z,-1.00
2018-01-07T21:41:41.679Z,-1.00
2018-01-07T21:44:10.209Z,-1.00
2018-01-07T21:46:37.742Z,-1.00
2018-01-07T21:49:06.067Z,-1.00
2018-01-07T21:51:33.638Z,-1.00
2018-01-07T21:54:01.168Z,-0.90
2018-01-07T21:56:29.474Z,-1.00
2018-01-07T21:58:57.059Z,-1.00
2018-01-07T22:01:36.459Z,-1.00
2018-01-07T22:04:04.043Z,-1.00
2018-01-07T22:09:33.342Z,-1.00
2018-01-07T22:12:00.926Z,-1.00
2018-01-07T22:14:28.471Z,-1.00
2018-01-07T22:16:56.075Z,-1.00
2018-01-07T22:19:23.612Z,-1.00
2018-01-07T22:21:51.151Z,-1.00
2018-01-07T22:24:19.900Z,-1.00
2018-01-07T22:26:47.439Z,-1.00
2018-01-07T22:29:15.047Z,-1.00
2018-01-07T22:31:42.627Z,-1.00
2018-01-07T22:34:10.265Z,-1.00
2018-01-07T22:36:37.799Z,-1.00
2018-01-07T22:39:06.148Z,-1.10
2018-01-07T22:41:33.683Z,-1.10
2018-01-07T22:44:01.242Z,-1.10
2018-01-07T22:46:29.582Z,-1.10
2018-01-07T22:48:57.115Z,-1.10
2018-01-07T22:51:24.650Z,-1.10
2018-01-07T22:53:52.235Z,-1.10
2018-01-07T22:56:20.552Z,-1.10
2018-01-07T22:58:48.111Z,-1.10
2018-01-07T23:01:16.455Z,-1.00
2018-01-07T23:03:44.020Z,-1.10
2018-01-07T23:06:11.562Z,-1.10
2018-01-07T23:08:39.141Z,-1.10
2018-01-07T23:11:06.692Z,-1.10
2018-01-07T23:13:34.215Z,-1.10
2018-01-07T23:16:01.895Z,-1.10
2018-01-07T23:18:29.436Z,-1.10
2018-01-07T23:20:56.973Z,-1.10
2018-01-07T23:23:25.507Z,-1.10
2018-01-07T23:25:53.062Z,-1.10
2018-01-07T23:28:20.924Z,-1.10
2018-01-07T23:30:49.619Z,-1.10
2018-01-07T23:33:17.320Z,-1.20
2018-01-07T23:35:44.854Z,-1.20
2018-01-07T23:38:13.207Z,-1.20
2018-01-07T23:40:40.744Z,-1.20
2018-01-07T23:43:08.280Z,-1.20
2018-01-07T23:45:36.667Z,-1.20
2018-01-07T23:48:04.967Z,-1.20
2018-01-07T23:50:32.510Z,-1.20
2018-01-07T23:53:00.095Z,-1.20
2018-01-07T23:55:28.219Z,-1.20
2018-01-07T23:57:55.762Z,-1.20
